Wetterdaten: aktuell Dienstag, 05.05.2026 17:24
Datum Zeit Temp. A. Feuchte A. Luftdruck Regen Wind Richtung Richtung Taupunkt Windchill
05.05.2026 17:24 16,9 °C 78 % 1000,1 hPa 0,0 l/m² 0,7 km/h (0 Bft) NW 305 ° 13,0 °C 16,9 °C
05.05.2026 17:23 17,0 °C 77 % 1000,0 hPa 0,0 l/m² 0,0 km/h (0 Bft) NW 305 ° 12,9 °C 17,0 °C
05.05.2026 17:21 17,0 °C 77 % 1000,0 hPa 0,0 l/m² 0,0 km/h (0 Bft) NW 305 ° 12,9 °C 17,0 °C
05.05.2026 17:19 17,0 °C 76 % 1000,0 hPa 0,0 l/m² 0,0 km/h (0 Bft) NW 305 ° 12,7 °C 17,0 °C
05.05.2026 17:17 17,0 °C 75 % 1000,0 hPa 0,0 l/m² 0,0 km/h (0 Bft) NW 305 ° 12,5 °C 17,0 °C
05.05.2026 17:15 17,0 °C 75 % 1000,0 hPa 0,0 l/m² 0,0 km/h (0 Bft) NW 305 ° 12,5 °C 17,0 °C
05.05.2026 17:13 17,0 °C 75 % 1000,0 hPa 0,0 l/m² 0,0 km/h (0 Bft) NW 305 ° 12,5 °C 17,0 °C
05.05.2026 17:11 16,9 °C 75 % 1000,1 hPa 0,0 l/m² 0,0 km/h (0 Bft) NW 305 ° 12,4 °C 16,9 °C
05.05.2026 17:09 16,9 °C 75 % 1000,1 hPa 0,0 l/m² 0,0 km/h (0 Bft) NW 305 ° 12,4 °C 16,9 °C
05.05.2026 17:07 16,9 °C 75 % 1000,1 hPa 0,0 l/m² 0,0 km/h (0 Bft) NW 305 ° 12,4 °C 16,9 °C
05.05.2026 17:05 16,9 °C 75 % 1000,1 hPa 0,0 l/m² 0,0 km/h (0 Bft) NW 305 ° 12,4 °C 16,9 °C
05.05.2026 17:03 16,9 °C 75 % 1000,1 hPa 0,0 l/m² 0,1 km/h (0 Bft) NW 305 ° 12,4 °C 16,9 °C
05.05.2026 17:01 16,9 °C 75 % 1000,1 hPa 0,0 l/m² 0,6 km/h (0 Bft) NW 305 ° 12,4 °C 16,9 °C
05.05.2026 16:59 17,0 °C 74 % 1000,0 hPa 0,0 l/m² 0,6 km/h (0 Bft) NW 305 ° 12,3 °C 17,0 °C
05.05.2026 16:57 17,0 °C 74 % 1000,0 hPa 0,0 l/m² 0,0 km/h (0 Bft) NW 305 ° 12,3 °C 17,0 °C
05.05.2026 16:55 17,0 °C 74 % 1000,0 hPa 0,0 l/m² 0,0 km/h (0 Bft) NW 305 ° 12,3 °C 17,0 °C
05.05.2026 16:53 17,0 °C 73 % 1000,0 hPa 0,0 l/m² 0,1 km/h (0 Bft) NW 305 ° 12,1 °C 17,0 °C
05.05.2026 16:51 17,0 °C 73 % 1000,0 hPa 0,0 l/m² 0,1 km/h (0 Bft) NW 305 ° 12,1 °C 17,0 °C
05.05.2026 16:49 17,1 °C 72 % 1000,0 hPa 0,0 l/m² 5,9 km/h (2 Bft) NW 305 ° 12,0 °C 17,1 °C
05.05.2026 16:47 17,2 °C 72 % 1000,0 hPa 0,4 l/m² 0,4 km/h (0 Bft) NW 305 ° 12,1 °C 17,2 °C
05.05.2026 16:44 17,2 °C 72 % 1000,0 hPa 0,0 l/m² 0,4 km/h (0 Bft) NW 305 ° 12,1 °C 17,2 °C
05.05.2026 16:42 17,4 °C 71 % 1000,0 hPa 0,0 l/m² 0,3 km/h (0 Bft) W-NW±45° 290 ° 12,1 °C 17,4 °C
05.05.2026 16:40 17,5 °C 70 % 1000,0 hPa 0,0 l/m² 0,0 km/h (0 Bft) S-SW 205 ° 12,0 °C 17,5 °C
05.05.2026 16:39 17,5 °C 70 % 1000,0 hPa 0,0 l/m² 0,3 km/h (0 Bft) S-SW 205 ° 12,0 °C 17,5 °C
05.05.2026 16:37 17,6 °C 69 % 1000,0 hPa 0,0 l/m² 0,3 km/h (0 Bft) S-SW 205 ° 11,8 °C 17,6 °C
05.05.2026 16:35 17,7 °C 68 % 1000,0 hPa 0,0 l/m² 0,4 km/h (0 Bft) S-SO 155 ° 11,7 °C 17,7 °C
05.05.2026 16:33 18,0 °C 67 % 1000,0 hPa 0,0 l/m² 0,4 km/h (0 Bft) S-SO 155 ° 11,8 °C 18,0 °C
05.05.2026 16:31 18,0 °C 67 % 1000,0 hPa 0,0 l/m² 0,3 km/h (0 Bft) S-SO 155 ° 11,8 °C 18,0 °C
05.05.2026 16:29 18,5 °C 64 % 1000,0 hPa 0,4 l/m² 0,3 km/h (0 Bft) S-SO 155 ° 11,6 °C 18,5 °C
05.05.2026 16:27 18,5 °C 64 % 1000,0 hPa 0,0 l/m² 0,0 km/h (0 Bft) S-SO 150 ° 11,6 °C 18,5 °C
05.05.2026 16:25 18,5 °C 64 % 1000,0 hPa 0,0 l/m² 0,0 km/h (0 Bft) S-SO 150 ° 11,6 °C 18,5 °C
05.05.2026 16:23 18,8 °C 62 % 1000,0 hPa 0,0 l/m² 0,0 km/h (0 Bft) S-SO 150 ° 11,4 °C 18,8 °C
05.05.2026 16:21 19,3 °C 58 % 1000,0 hPa 0,0 l/m² 1,9 km/h (1 Bft) S-SO±22.5° 150 ° 10,8 °C 19,3 °C
05.05.2026 16:19 19,3 °C 58 % 1000,0 hPa 1,1 l/m² 0,1 km/h (0 Bft) SO 130 ° 10,8 °C 19,3 °C
05.05.2026 16:17 19,3 °C 58 % 1000,0 hPa 0,0 l/m² 0,7 km/h (0 Bft) SO±22.5° 135 ° 10,8 °C 19,3 °C
05.05.2026 16:15 19,7 °C 56 % 999,9 hPa 0,0 l/m² 0,7 km/h (0 Bft) SO±22.5° 135 ° 10,7 °C 19,7 °C
05.05.2026 16:13 19,7 °C 56 % 999,9 hPa 0,7 l/m² 0,3 km/h (0 Bft) SO 140 ° 10,7 °C 19,7 °C
05.05.2026 16:11 20,2 °C 52 % 999,9 hPa 0,0 l/m² 0,3 km/h (0 Bft) SO 140 ° 10,0 °C 20,2 °C
05.05.2026 16:09 20,5 °C 49 % 999,9 hPa 0,7 l/m² 11,0 km/h (2 Bft) S-SO±22.5° 150 ° 9,4 °C 18,9 °C
05.05.2026 16:07 20,5 °C 49 % 999,9 hPa 0,4 l/m² 11,0 km/h (2 Bft) S-SO±22.5° 150 ° 9,4 °C 18,9 °C
05.05.2026 16:05 20,9 °C 48 % 999,9 hPa 0,0 l/m² 12,1 km/h (2 Bft) S-SO±22.5° 150 ° 9,5 °C 19,0 °C
_ Min-Zeit 06:26 14:27 14:57 - 00:05 - - 14:59 06:26
Minimum _ 14,7 °C 33 % 998,8 hPa - 0,0 km/h (0 Bft) - - 4,9 °C 14,7 °C
_ Max-Zeit 12:55 06:23 01:19 16:19 15:51 - - 17:24 12:55
Maximum _ 22,2 °C 78 % 1005,2 hPa 1,1 l/m² 16,9 km/h
S-SO (3 Bft)
- - 13,0 °C 22,2 °C
Durchschnitt _ 17,7 °C 61 % 1002,0 hPa #4,0 l/m² 1,6 km/h (1 Bft) N - 9,4 °C 17,7 °C